createdAt,value
2022-08-08T00:00:54.518Z,13.50
2022-08-08T00:01:08.157Z,13.49
2022-08-08T00:02:43.421Z,13.49
2022-08-08T00:03:50.102Z,13.49
2022-08-08T00:04:59.998Z,13.48
2022-08-08T00:06:09.620Z,13.47
2022-08-08T00:07:17.910Z,13.47
2022-08-08T00:08:28.580Z,13.47
2022-08-08T00:09:40.830Z,13.48
2022-08-08T00:10:51.810Z,13.48
2022-08-08T00:12:08.009Z,13.49
2022-08-08T00:14:15.016Z,13.47
2022-08-08T00:14:57.135Z,13.45
2022-08-08T00:16:09.165Z,13.45
2022-08-08T00:17:23.239Z,13.44
2022-08-08T00:18:33.389Z,13.43
2022-08-08T00:19:46.678Z,13.43
2022-08-08T00:20:58.270Z,13.42
2022-08-08T00:22:04.948Z,13.43
2022-08-08T00:23:18.616Z,13.43
2022-08-08T00:24:29.977Z,13.43
2022-08-08T00:25:46.867Z,13.42
2022-08-08T00:26:58.138Z,13.41
2022-08-08T00:28:02.450Z,13.40
2022-08-08T00:29:10.948Z,13.39
2022-08-08T00:30:15.701Z,13.38
2022-08-08T00:32:20.975Z,13.37
2022-08-08T00:32:52.352Z,13.34
2022-08-08T00:34:20.778Z,13.33
2022-08-08T00:35:34.298Z,13.29
2022-08-08T00:36:43.029Z,13.27
2022-08-08T00:38:31.852Z,13.26
2022-08-08T00:41:11.653Z,13.22
2022-08-08T00:41:55.608Z,13.21
2022-08-08T00:43:45.949Z,13.17
2022-08-08T00:45:21.294Z,13.17
2022-08-08T00:47:04.524Z,13.15
2022-08-08T00:49:03.366Z,13.12
2022-08-08T00:50:59.962Z,13.09
2022-08-08T00:52:48.369Z,13.04
2022-08-08T00:54:15.533Z,13.01
2022-08-08T00:55:53.700Z,13.00
2022-08-08T00:57:34.397Z,13.00
2022-08-08T00:59:43.914Z,13.02
2022-08-08T01:00:52.873Z,13.01
2022-08-08T01:03:59.822Z,13.02
2022-08-08T01:04:02.673Z,13.04
2022-08-08T01:05:59.277Z,13.07
2022-08-08T01:07:55.268Z,13.08
2022-08-08T01:09:42.092Z,13.08
2022-08-08T01:11:24.368Z,13.09
2022-08-08T01:13:06.369Z,13.10
2022-08-08T01:14:54.254Z,13.12
2022-08-08T01:16:19.938Z,13.11
2022-08-08T01:18:50.580Z,13.14
2022-08-08T01:20:03.429Z,13.13
2022-08-08T01:22:10.326Z,13.15
2022-08-08T01:24:13.560Z,13.15
2022-08-08T01:25:42.972Z,13.12
2022-08-08T01:27:44.345Z,13.13
2022-08-08T01:29:35.595Z,13.12
2022-08-08T01:32:13.741Z,13.14
2022-08-08T01:34:00.553Z,13.10
2022-08-08T01:35:49.704Z,13.08
2022-08-08T01:37:17.441Z,13.07
2022-08-08T01:38:59.389Z,13.08
2022-08-08T01:40:23.814Z,13.08
2022-08-08T01:41:43.672Z,13.08
2022-08-08T01:42:51.929Z,13.10
2022-08-08T01:44:02.190Z,13.12
2022-08-08T01:45:23.551Z,13.14
2022-08-08T01:46:52.142Z,13.17
2022-08-08T01:48:30.778Z,13.17
2022-08-08T01:49:47.810Z,13.19
2022-08-08T01:51:30.584Z,13.21
2022-08-08T01:53:28.818Z,13.23
2022-08-08T01:55:45.332Z,13.23
2022-08-08T01:56:28.908Z,13.26
2022-08-08T01:57:25.789Z,13.27
2022-08-08T01:58:59.623Z,13.30
2022-08-08T02:00:19.620Z,13.33
2022-08-08T02:02:00.347Z,13.35
2022-08-08T02:03:55.476Z,13.39
2022-08-08T02:04:58.445Z,13.42
2022-08-08T02:06:09.018Z,13.44
2022-08-08T02:07:42.078Z,13.48
2022-08-08T02:08:58.358Z,13.53
2022-08-08T02:10:29.516Z,13.59
2022-08-08T02:11:59.342Z,13.60
2022-08-08T02:13:54.790Z,13.64
2022-08-08T02:14:58.794Z,13.67
2022-08-08T02:16:28.319Z,13.70
2022-08-08T02:17:43.250Z,13.73
2022-08-08T02:18:58.779Z,13.76
2022-08-08T02:20:16.301Z,13.79
2022-08-08T02:21:56.828Z,13.82
2022-08-08T02:23:18.395Z,13.85
2022-08-08T02:24:26.789Z,13.87
2022-08-08T02:25:46.856Z,13.90
2022-08-08T02:26:58.152Z,13.90
2022-08-08T02:28:07.158Z,13.93
2022-08-08T02:29:31.415Z,13.95
2022-08-08T02:30:57.914Z,13.96
2022-08-08T02:32:15.727Z,13.97
2022-08-08T02:34:08.701Z,13.99
2022-08-08T02:36:04.145Z,14.01
2022-08-08T02:37:10.153Z,14.01
2022-08-08T02:38:56.279Z,14.01
2022-08-08T02:40:12.060Z,14.02
2022-08-08T02:41:58.880Z,14.04
2022-08-08T02:44:39.101Z,14.04
2022-08-08T02:45:24.125Z,14.04
2022-08-08T02:46:47.043Z,14.05
2022-08-08T02:48:27.314Z,14.05
2022-08-08T02:50:17.850Z,14.06
2022-08-08T02:51:56.655Z,14.08
2022-08-08T02:53:24.110Z,14.08
2022-08-08T02:54:42.377Z,14.10
2022-08-08T02:56:17.565Z,14.11
2022-08-08T02:57:51.368Z,14.12
2022-08-08T02:59:57.744Z,14.13
2022-08-08T03:01:47.291Z,14.14
2022-08-08T03:05:00.228Z,14.17
2022-08-08T03:05:25.564Z,14.16
2022-08-08T03:07:07.229Z,14.18
2022-08-08T03:08:52.480Z,14.19
2022-08-08T03:10:44.407Z,14.20
2022-08-08T03:12:36.902Z,14.19
2022-08-08T03:15:57.768Z,14.19
2022-08-08T03:16:05.692Z,14.19
2022-08-08T03:17:25.552Z,14.19
2022-08-08T03:18:52.213Z,14.18
2022-08-08T03:20:13.729Z,14.17
2022-08-08T03:21:19.818Z,14.17
2022-08-08T03:22:38.909Z,14.17
2022-08-08T03:23:57.305Z,14.17
2022-08-08T03:25:09.215Z,14.15
2022-08-08T03:26:42.315Z,14.15
2022-08-08T03:27:57.037Z,14.13
2022-08-08T03:29:16.695Z,14.14
2022-08-08T03:30:26.549Z,14.12
2022-08-08T03:32:06.465Z,14.12
2022-08-08T03:33:56.789Z,14.08
2022-08-08T03:34:48.513Z,14.07
2022-08-08T03:35:52.793Z,14.07
2022-08-08T03:36:58.801Z,14.09
2022-08-08T03:38:56.911Z,14.10
2022-08-08T03:39:29.732Z,14.11
2022-08-08T03:40:34.351Z,14.12
2022-08-08T03:42:26.598Z,14.11
2022-08-08T03:43:16.876Z,14.10
2022-08-08T03:44:32.828Z,14.08
2022-08-08T03:46:06.289Z,14.10
2022-08-08T03:47:14.297Z,14.09
2022-08-08T03:49:09.547Z,14.08
2022-08-08T03:49:57.432Z,14.09
2022-08-08T03:51:09.186Z,14.08
2022-08-08T03:52:18.398Z,14.09
2022-08-08T03:53:42.721Z,14.11
2022-08-08T03:55:01.966Z,14.11
2022-08-08T03:56:31.337Z,14.12
2022-08-08T03:58:30.485Z,14.13
2022-08-08T03:59:02.669Z,14.14
2022-08-08T04:00:11.439Z,14.16
2022-08-08T04:01:26.198Z,14.18
2022-08-08T04:02:56.998Z,14.20
2022-08-08T04:04:02.104Z,14.22
2022-08-08T04:05:19.352Z,14.23
2022-08-08T04:06:29.579Z,14.26
2022-08-08T04:07:39.315Z,14.29
2022-08-08T04:08:46.091Z,14.30
2022-08-08T04:10:02.955Z,14.32
2022-08-08T04:11:17.377Z,14.33
2022-08-08T04:12:23.268Z,14.35
2022-08-08T04:13:28.309Z,14.37
2022-08-08T04:14:38.122Z,14.39
2022-08-08T04:16:03.408Z,14.39
2022-08-08T04:17:15.444Z,14.40
2022-08-08T04:18:27.200Z,14.41
2022-08-08T04:19:30.439Z,14.41
2022-08-08T04:20:41.187Z,14.42
2022-08-08T04:21:45.898Z,14.43
2022-08-08T04:22:51.389Z,14.45
2022-08-08T04:24:05.679Z,14.47
2022-08-08T04:25:18.082Z,14.50
2022-08-08T04:26:21.597Z,14.52
2022-08-08T04:28:01.949Z,14.55
2022-08-08T04:28:54.745Z,14.57
2022-08-08T04:30:17.300Z,14.60
2022-08-08T04:31:59.437Z,14.63
2022-08-08T04:32:50.337Z,14.67
2022-08-08T04:33:57.287Z,14.73
2022-08-08T04:35:01.532Z,14.78
2022-08-08T04:36:09.849Z,14.82
2022-08-08T04:37:15.077Z,14.89
2022-08-08T04:38:21.638Z,14.96
2022-08-08T04:40:04.621Z,15.00
2022-08-08T04:40:55.074Z,15.05
2022-08-08T04:42:00.411Z,15.09
2022-08-08T04:43:05.879Z,15.14
2022-08-08T04:44:17.800Z,15.20
2022-08-08T04:45:24.125Z,15.24
2022-08-08T04:46:31.329Z,15.29
2022-08-08T04:47:43.248Z,15.32
2022-08-08T04:48:52.809Z,15.37
2022-08-08T04:50:01.304Z,15.42
2022-08-08T04:51:17.463Z,15.46
2022-08-08T04:52:33.934Z,15.50
2022-08-08T04:54:36.023Z,15.54
2022-08-08T04:55:07.607Z,15.60
2022-08-08T04:56:13.197Z,15.65
2022-08-08T04:57:18.047Z,15.71
2022-08-08T04:58:22.421Z,15.79
2022-08-08T04:59:29.988Z,15.88
2022-08-08T05:00:34.988Z,15.99
2022-08-08T05:01:48.651Z,16.07
2022-08-08T05:02:55.540Z,16.15
2022-08-08T05:04:08.098Z,16.22
2022-08-08T05:05:20.387Z,16.32
2022-08-08T05:06:45.553Z,16.39
2022-08-08T05:07:49.141Z,16.48
2022-08-08T05:08:55.750Z,16.55
2022-08-08T05:10:01.740Z,16.63
2022-08-08T05:11:23.881Z,16.68
2022-08-08T05:12:36.744Z,16.73
2022-08-08T05:13:54.979Z,16.79
2022-08-08T05:15:05.208Z,16.83
2022-08-08T05:16:50.826Z,16.88
2022-08-08T05:17:37.318Z,16.93
2022-08-08T05:18:56.739Z,17.03
2022-08-08T05:20:12.464Z,17.13
2022-08-08T05:21:19.302Z,17.25
2022-08-08T05:22:25.120Z,17.34
2022-08-08T05:23:30.646Z,17.44
2022-08-08T05:24:48.939Z,17.54
2022-08-08T05:26:00.339Z,17.61
2022-08-08T05:27:06.347Z,17.68
2022-08-08T05:28:13.007Z,17.73
2022-08-08T05:29:19.296Z,17.79
2022-08-08T05:30:27.913Z,17.85
2022-08-08T05:32:03.392Z,17.89
2022-08-08T05:32:58.368Z,17.93
2022-08-08T05:34:10.207Z,17.96
2022-08-08T05:35:16.864Z,17.97
2022-08-08T05:36:24.982Z,18.02
2022-08-08T05:37:49.090Z,18.04
2022-08-08T05:38:59.081Z,18.07
2022-08-08T05:40:05.618Z,18.12
2022-08-08T05:41:11.770Z,18.20
2022-08-08T05:42:19.287Z,18.30
2022-08-08T05:44:02.301Z,18.37
2022-08-08T05:44:52.948Z,18.45
2022-08-08T05:46:03.197Z,18.53
2022-08-08T05:47:14.141Z,18.57
2022-08-08T05:48:28.909Z,18.58
2022-08-08T05:49:37.977Z,18.59
2022-08-08T05:50:42.544Z,18.61
2022-08-08T05:51:51.002Z,18.60
2022-08-08T05:53:54.220Z,18.55
2022-08-08T05:54:42.977Z,18.58
2022-08-08T05:56:11.354Z,18.69
2022-08-08T05:57:57.438Z,18.91
2022-08-08T05:58:56.779Z,19.12
2022-08-08T06:00:25.054Z,19.43
2022-08-08T06:01:55.534Z,19.73
2022-08-08T06:03:13.077Z,20.04
2022-08-08T06:04:27.605Z,20.27
2022-08-08T06:05:36.657Z,20.42
2022-08-08T06:06:48.130Z,20.55
2022-08-08T06:08:02.733Z,20.66
2022-08-08T06:09:59.177Z,20.69
2022-08-08T06:10:42.709Z,20.67
2022-08-08T06:11:49.346Z,20.74
2022-08-08T06:12:52.432Z,20.83
2022-08-08T06:13:58.149Z,20.91
2022-08-08T06:15:06.093Z,20.98
2022-08-08T06:16:14.042Z,21.04
2022-08-08T06:17:51.113Z,21.20
2022-08-08T06:19:03.882Z,21.26
2022-08-08T06:20:13.609Z,21.35
2022-08-08T06:21:32.275Z,21.52
2022-08-08T06:22:46.115Z,21.84
2022-08-08T06:24:03.455Z,22.13
2022-08-08T06:25:14.074Z,22.42
2022-08-08T06:26:43.012Z,22.66
2022-08-08T06:27:48.879Z,22.85
2022-08-08T06:28:58.351Z,22.96
2022-08-08T06:30:11.789Z,23.08
2022-08-08T06:31:32.253Z,23.28
2022-08-08T06:32:52.946Z,23.59
2022-08-08T06:34:27.519Z,23.88
2022-08-08T06:36:08.091Z,23.90
2022-08-08T06:36:57.469Z,23.98
2022-08-08T06:38:09.207Z,24.06
2022-08-08T06:39:22.360Z,24.03
2022-08-08T06:40:30.105Z,23.97
2022-08-08T06:41:43.526Z,23.94
2022-08-08T06:42:57.087Z,23.90
2022-08-08T06:44:12.305Z,23.86
2022-08-08T06:45:34.146Z,23.87
2022-08-08T06:46:38.714Z,23.86
2022-08-08T06:47:52.593Z,23.86
2022-08-08T06:49:06.260Z,23.93
2022-08-08T06:50:17.409Z,23.99
2022-08-08T06:51:23.324Z,24.12
2022-08-08T06:52:29.107Z,24.24
2022-08-08T06:53:39.705Z,24.41
2022-08-08T06:54:58.790Z,24.61
2022-08-08T06:56:04.441Z,24.69
2022-08-08T06:57:12.487Z,24.72
2022-08-08T06:58:19.195Z,24.80
2022-08-08T06:59:27.131Z,24.90
2022-08-08T07:00:40.965Z,24.98
2022-08-08T07:02:16.922Z,24.98
2022-08-08T07:03:19.425Z,25.07
2022-08-08T07:04:36.371Z,25.13
2022-08-08T07:06:02.191Z,25.17
2022-08-08T07:07:12.557Z,25.10
2022-08-08T07:08:27.699Z,25.03
2022-08-08T07:09:45.113Z,25.01
2022-08-08T07:11:01.531Z,25.06
2022-08-08T07:12:08.883Z,25.17
2022-08-08T07:13:17.606Z,25.32
2022-08-08T07:14:38.695Z,25.39
2022-08-08T07:16:06.276Z,25.52
2022-08-08T07:17:19.833Z,25.61
2022-08-08T07:18:36.278Z,25.60
2022-08-08T07:19:45.756Z,25.69
2022-08-08T07:20:55.898Z,25.71
2022-08-08T07:22:18.777Z,25.69
2022-08-08T07:24:02.071Z,25.71
2022-08-08T07:25:01.954Z,25.94
2022-08-08T07:26:06.486Z,26.13
2022-08-08T07:27:16.734Z,26.33
2022-08-08T07:28:31.688Z,26.46
2022-08-08T07:30:02.397Z,26.57
2022-08-08T07:31:10.183Z,26.67
2022-08-08T07:32:15.920Z,26.80
2022-08-08T07:33:24.987Z,26.80
2022-08-08T07:35:00.185Z,26.87
2022-08-08T07:36:10.889Z,26.79
2022-08-08T07:37:23.330Z,26.68
2022-08-08T07:38:28.636Z,26.73
2022-08-08T07:39:45.287Z,26.80
2022-08-08T07:40:51.637Z,26.85
2022-08-08T07:42:03.964Z,26.90
2022-08-08T07:43:13.554Z,26.96
2022-08-08T07:44:37.772Z,26.88
2022-08-08T07:46:05.865Z,26.76
2022-08-08T07:47:13.416Z,26.85
2022-08-08T07:48:20.858Z,26.82
2022-08-08T07:49:28.804Z,26.82
2022-08-08T07:50:32.922Z,26.88
2022-08-08T07:51:45.409Z,26.90
2022-08-08T07:53:02.177Z,27.02
2022-08-08T07:54:24.026Z,27.15
2022-08-08T07:55:36.404Z,27.15
2022-08-08T07:56:50.794Z,27.25
2022-08-08T07:58:05.471Z,27.39
2022-08-08T07:59:14.794Z,27.53
2022-08-08T08:00:23.967Z,27.71
2022-08-08T08:02:33.285Z,27.80
2022-08-08T08:03:23.459Z,27.92
2022-08-08T08:04:40.046Z,28.07
2022-08-08T08:05:50.648Z,28.14
2022-08-08T08:07:00.965Z,28.12
2022-08-08T08:08:06.778Z,28.00
2022-08-08T08:09:19.669Z,27.92
2022-08-08T08:10:33.186Z,27.86
2022-08-08T08:11:51.560Z,27.85
2022-08-08T08:13:25.679Z,27.67
2022-08-08T08:14:56.270Z,27.46
2022-08-08T08:16:03.441Z,27.45
2022-08-08T08:17:13.926Z,27.59
2022-08-08T08:18:31.721Z,27.78
2022-08-08T08:19:45.648Z,27.77
2022-08-08T08:20:53.906Z,27.75
2022-08-08T08:22:07.795Z,27.82
2022-08-08T08:23:16.285Z,27.89
2022-08-08T08:24:30.429Z,27.99
2022-08-08T08:25:42.731Z,28.05
2022-08-08T08:26:54.648Z,28.28
2022-08-08T08:28:02.971Z,28.33
2022-08-08T08:29:07.207Z,28.23
2022-08-08T08:30:21.232Z,28.27
2022-08-08T08:31:41.534Z,28.43
2022-08-08T08:32:51.562Z,28.71
2022-08-08T08:33:58.941Z,28.87
2022-08-08T08:35:03.517Z,28.96
2022-08-08T08:36:19.271Z,28.99
2022-08-08T08:37:30.466Z,29.06
2022-08-08T08:38:36.099Z,29.22
2022-08-08T08:40:02.063Z,29.41
2022-08-08T08:41:17.820Z,29.68
2022-08-08T08:42:31.270Z,29.84
2022-08-08T08:43:42.634Z,30.02
2022-08-08T08:44:52.499Z,30.06
2022-08-08T08:45:57.337Z,29.89
2022-08-08T08:47:06.589Z,29.60
2022-08-08T08:48:19.007Z,29.37
2022-08-08T08:49:29.558Z,29.18
2022-08-08T08:50:40.857Z,29.00
2022-08-08T08:51:51.568Z,28.91
2022-08-08T08:52:59.946Z,28.85
2022-08-08T08:54:10.098Z,28.80
2022-08-08T08:55:16.070Z,28.76
2022-08-08T08:56:24.084Z,28.79
2022-08-08T08:57:34.620Z,28.74
2022-08-08T08:58:43.051Z,28.77
2022-08-08T08:59:58.770Z,28.80
2022-08-08T09:01:09.637Z,28.85
2022-08-08T09:02:21.801Z,28.95
2022-08-08T09:03:31.504Z,29.21
2022-08-08T09:04:50.718Z,29.43
2022-08-08T09:05:57.506Z,29.63
2022-08-08T09:07:12.920Z,29.87
2022-08-08T09:08:22.130Z,30.11
2022-08-08T09:09:39.489Z,30.20
2022-08-08T09:10:57.313Z,30.35
2022-08-08T09:12:08.046Z,30.43
2022-08-08T09:13:15.641Z,30.39
2022-08-08T09:14:23.246Z,30.38
2022-08-08T09:15:40.905Z,30.41
2022-08-08T09:16:47.769Z,30.29
2022-08-08T09:17:55.854Z,30.31
2022-08-08T09:19:05.508Z,30.38
2022-08-08T09:21:58.982Z,30.49
2022-08-08T09:22:05.465Z,30.43
2022-08-08T09:23:03.217Z,30.47
2022-08-08T09:24:08.154Z,30.60
2022-08-08T09:25:19.029Z,30.76
2022-08-08T09:26:39.581Z,30.96
2022-08-08T09:28:05.310Z,30.97
2022-08-08T09:29:28.216Z,30.65
2022-08-08T09:30:55.681Z,30.23
2022-08-08T09:32:19.421Z,29.81
2022-08-08T09:34:14.876Z,29.35
2022-08-08T09:35:37.369Z,29.16
2022-08-08T09:37:34.141Z,29.12
2022-08-08T09:38:54.686Z,29.22
2022-08-08T09:40:21.307Z,29.27
2022-08-08T09:42:14.749Z,29.30
2022-08-08T09:43:40.608Z,29.35
2022-08-08T09:45:15.692Z,29.37
2022-08-08T09:46:45.116Z,29.40
2022-08-08T09:48:26.060Z,29.24
2022-08-08T09:49:51.742Z,29.09
2022-08-08T09:51:17.483Z,28.92
2022-08-08T09:53:00.370Z,28.76
2022-08-08T09:54:37.125Z,28.61
2022-08-08T09:56:06.476Z,28.61
2022-08-08T09:57:37.907Z,28.54
2022-08-08T09:59:42.786Z,28.49
2022-08-08T10:00:59.127Z,28.49
2022-08-08T10:02:25.096Z,28.49
2022-08-08T10:03:56.259Z,28.47
2022-08-08T10:05:23.136Z,28.41
2022-08-08T10:06:45.364Z,28.37
2022-08-08T10:08:12.628Z,28.32
2022-08-08T10:10:00.091Z,28.28
2022-08-08T10:12:23.007Z,28.36
2022-08-08T10:13:14.231Z,28.65
2022-08-08T10:14:38.670Z,29.15
2022-08-08T10:16:00.748Z,29.30
2022-08-08T10:17:56.834Z,29.52
2022-08-08T10:19:05.759Z,29.60
2022-08-08T10:20:44.567Z,29.45
2022-08-08T10:22:10.348Z,29.41
2022-08-08T10:23:46.059Z,29.47
2022-08-08T10:25:20.557Z,29.43
2022-08-08T10:26:59.493Z,29.41
2022-08-08T10:28:25.722Z,29.38
2022-08-08T10:29:58.668Z,29.27
2022-08-08T10:31:47.335Z,29.27
2022-08-08T10:33:12.242Z,29.13
2022-08-08T10:34:29.232Z,28.99
2022-08-08T10:36:08.539Z,28.83
2022-08-08T10:37:39.636Z,28.76
2022-08-08T10:39:07.908Z,28.85
2022-08-08T10:40:24.070Z,28.78
2022-08-08T10:42:13.018Z,28.68
2022-08-08T10:43:40.317Z,28.47
2022-08-08T10:45:02.980Z,28.36
2022-08-08T10:46:32.557Z,28.31
2022-08-08T10:47:56.946Z,28.25
2022-08-08T10:49:26.949Z,28.26
2022-08-08T10:51:13.383Z,28.19
2022-08-08T10:52:34.194Z,28.14
2022-08-08T10:54:02.118Z,28.11
2022-08-08T10:55:39.658Z,28.17
2022-08-08T10:56:58.575Z,28.24
2022-08-08T10:58:30.107Z,28.22
2022-08-08T10:59:54.046Z,28.11
2022-08-08T11:01:20.537Z,28.07
2022-08-08T11:02:42.806Z,27.97
2022-08-08T11:04:10.527Z,27.94
2022-08-08T11:05:38.304Z,27.99
2022-08-08T11:07:02.666Z,28.12
2022-08-08T11:08:37.936Z,28.26
2022-08-08T11:10:10.358Z,28.45
2022-08-08T11:12:05.287Z,28.49
2022-08-08T11:13:31.753Z,28.58
2022-08-08T11:14:52.960Z,28.75
2022-08-08T11:16:33.178Z,28.91
2022-08-08T11:18:01.117Z,29.08
2022-08-08T11:19:24.407Z,29.46
2022-08-08T11:20:52.432Z,29.75
2022-08-08T11:22:09.767Z,29.82
2022-08-08T11:23:35.204Z,29.97
2022-08-08T11:24:52.595Z,30.20
2022-08-08T11:26:19.385Z,30.44
2022-08-08T11:27:38.664Z,30.73
2022-08-08T11:29:07.666Z,31.07
2022-08-08T11:30:31.800Z,31.44
2022-08-08T11:31:50.433Z,31.79
2022-08-08T11:33:12.888Z,31.84
2022-08-08T11:34:41.867Z,31.72
2022-08-08T11:36:14.415Z,31.53
2022-08-08T11:38:36.329Z,31.57
2022-08-08T11:39:19.997Z,31.54
2022-08-08T11:40:42.957Z,31.43
2022-08-08T11:41:52.685Z,31.38
2022-08-08T11:43:13.167Z,31.35
2022-08-08T11:44:33.638Z,31.36
2022-08-08T11:46:10.028Z,31.34
2022-08-08T11:47:39.714Z,31.40
2022-08-08T11:49:14.224Z,31.51
2022-08-08T11:50:33.705Z,31.65
2022-08-08T11:51:50.395Z,31.76
2022-08-08T11:53:12.583Z,31.77
2022-08-08T11:54:34.410Z,31.78
2022-08-08T11:55:53.416Z,31.71
2022-08-08T11:57:16.946Z,31.50
2022-08-08T11:58:35.661Z,31.39
2022-08-08T12:00:02.024Z,31.51
2022-08-08T12:01:35.469Z,32.00
2022-08-08T12:02:54.985Z,32.36
2022-08-08T12:04:12.626Z,32.80
2022-08-08T12:05:36.204Z,33.37
2022-08-08T12:07:05.113Z,33.75
2022-08-08T12:08:39.297Z,33.86
2022-08-08T12:09:59.684Z,34.06
2022-08-08T12:11:27.061Z,34.22
2022-08-08T12:12:51.905Z,34.21
2022-08-08T12:14:12.629Z,34.12
2022-08-08T12:15:41.872Z,33.92
2022-08-08T12:17:03.453Z,33.93
2022-08-08T12:18:24.510Z,33.77
2022-08-08T12:19:51.165Z,33.51
2022-08-08T12:21:25.774Z,33.16
2022-08-08T12:23:02.756Z,32.57
2022-08-08T12:24:28.206Z,32.16
2022-08-08T12:25:52.772Z,31.77
2022-08-08T12:27:19.116Z,31.51
2022-08-08T12:28:39.791Z,31.18
2022-08-08T12:29:57.777Z,30.88
2022-08-08T12:31:06.484Z,30.61
2022-08-08T12:32:13.328Z,30.44
2022-08-08T12:33:24.065Z,30.35
2022-08-08T12:34:44.906Z,30.28
2022-08-08T12:35:52.681Z,30.38
2022-08-08T12:37:05.564Z,30.44
2022-08-08T12:38:18.031Z,30.49
2022-08-08T12:39:56.484Z,30.33
2022-08-08T12:41:10.540Z,30.26
2022-08-08T12:42:33.587Z,30.01
2022-08-08T12:43:43.793Z,30.00
2022-08-08T12:45:53.755Z,30.10
2022-08-08T12:46:30.412Z,30.06
2022-08-08T12:47:58.814Z,30.16
2022-08-08T12:50:25.913Z,30.41
2022-08-08T12:51:41.196Z,30.44
2022-08-08T12:52:54.676Z,30.55
2022-08-08T12:54:01.965Z,30.66
2022-08-08T12:55:29.113Z,30.77
2022-08-08T12:56:40.025Z,30.85
2022-08-08T12:58:15.460Z,30.92
2022-08-08T12:59:36.191Z,30.90
2022-08-08T13:00:51.638Z,30.92
2022-08-08T13:01:57.726Z,30.96
2022-08-08T13:03:04.947Z,30.95
2022-08-08T13:04:18.614Z,30.79
2022-08-08T13:06:05.656Z,30.68
2022-08-08T13:07:16.652Z,30.57
2022-08-08T13:08:22.258Z,30.56
2022-08-08T13:09:57.805Z,30.65
2022-08-08T13:11:04.572Z,30.81
2022-08-08T13:12:24.806Z,30.90
2022-08-08T13:13:37.604Z,30.85
2022-08-08T13:14:52.827Z,30.77
2022-08-08T13:16:18.509Z,30.68
2022-08-08T13:18:09.367Z,30.59
2022-08-08T13:18:56.898Z,30.37
2022-08-08T13:20:08.601Z,30.25
2022-08-08T13:21:14.177Z,30.19
2022-08-08T13:22:24.509Z,30.13
2022-08-08T13:23:36.064Z,30.13
2022-08-08T13:24:48.964Z,30.16
2022-08-08T13:25:59.363Z,30.24
2022-08-08T13:27:11.864Z,30.30
2022-08-08T13:28:17.477Z,30.39
2022-08-08T13:29:22.093Z,30.40
2022-08-08T13:30:28.098Z,30.34
2022-08-08T13:31:32.816Z,30.30
2022-08-08T13:32:39.592Z,30.40
2022-08-08T13:33:50.164Z,30.59
2022-08-08T13:34:56.097Z,30.79
2022-08-08T13:35:59.344Z,31.01
2022-08-08T13:37:03.906Z,31.18
2022-08-08T13:38:15.549Z,31.39
2022-08-08T13:39:21.433Z,31.45
2022-08-08T13:40:27.338Z,31.56
2022-08-08T13:41:39.277Z,31.79
2022-08-08T13:42:49.074Z,32.09
2022-08-08T13:43:54.030Z,32.28
2022-08-08T13:45:04.562Z,32.49
2022-08-08T13:46:28.414Z,32.47
2022-08-08T13:47:34.576Z,32.44
2022-08-08T13:48:48.235Z,32.49
2022-08-08T13:50:34.872Z,32.46
2022-08-08T13:51:37.959Z,32.31
2022-08-08T13:52:48.623Z,32.17
2022-08-08T13:54:00.045Z,32.08
2022-08-08T13:55:08.211Z,32.09
2022-08-08T13:56:12.387Z,32.08
2022-08-08T13:57:18.067Z,32.08
2022-08-08T13:58:56.270Z,32.25
2022-08-08T14:00:09.398Z,32.47
2022-08-08T14:01:23.359Z,32.44
2022-08-08T14:02:44.785Z,32.40
2022-08-08T14:03:55.101Z,32.40
2022-08-08T14:05:09.130Z,32.36
2022-08-08T14:06:33.206Z,32.34
2022-08-08T14:07:42.242Z,32.42
2022-08-08T14:08:46.824Z,32.64
2022-08-08T14:10:05.345Z,32.95
2022-08-08T14:11:20.987Z,33.13
2022-08-08T14:12:27.921Z,33.16
2022-08-08T14:13:33.991Z,33.10
2022-08-08T14:14:40.159Z,33.02
2022-08-08T14:15:50.101Z,33.01
2022-08-08T14:16:55.429Z,32.83
2022-08-08T14:18:34.539Z,32.46
2022-08-08T14:19:56.973Z,32.28
2022-08-08T14:21:04.075Z,32.27
2022-08-08T14:22:18.396Z,32.32
2022-08-08T14:24:08.134Z,32.37
2022-08-08T14:24:52.470Z,32.37
2022-08-08T14:26:00.673Z,32.28
2022-08-08T14:27:27.285Z,32.15
2022-08-08T14:28:32.025Z,31.88
2022-08-08T14:29:54.777Z,31.70
2022-08-08T14:31:09.705Z,31.62
2022-08-08T14:32:30.010Z,31.57
2022-08-08T14:33:36.452Z,31.52
2022-08-08T14:34:42.056Z,31.34
2022-08-08T14:35:49.572Z,31.19
2022-08-08T14:36:56.706Z,31.05
2022-08-08T14:38:08.739Z,31.00
2022-08-08T14:39:19.324Z,30.94
2022-08-08T14:40:24.812Z,30.97
2022-08-08T14:41:53.095Z,30.96
2022-08-08T14:42:57.042Z,30.84
2022-08-08T14:44:11.177Z,30.67
2022-08-08T14:45:18.327Z,30.40
2022-08-08T14:46:37.321Z,30.06
2022-08-08T14:47:51.446Z,29.84
2022-08-08T14:48:59.066Z,29.67
2022-08-08T14:50:16.243Z,29.73
2022-08-08T14:51:30.945Z,30.13
2022-08-08T14:52:57.604Z,30.62
2022-08-08T14:54:03.477Z,30.88
2022-08-08T14:55:10.116Z,31.00
2022-08-08T14:56:15.447Z,31.13
2022-08-08T14:57:20.661Z,31.31
2022-08-08T14:58:43.940Z,31.54
2022-08-08T14:59:50.942Z,31.66
2022-08-08T15:00:58.325Z,31.77
2022-08-08T15:02:01.602Z,31.93
2022-08-08T15:03:15.999Z,32.06
2022-08-08T15:04:21.213Z,32.25
2022-08-08T15:05:34.169Z,32.31
2022-08-08T15:06:47.667Z,32.38
2022-08-08T15:08:00.794Z,32.46
2022-08-08T15:09:06.195Z,32.61
2022-08-08T15:10:12.706Z,32.72
2022-08-08T15:11:19.070Z,32.84
2022-08-08T15:12:27.583Z,33.07
2022-08-08T15:13:39.886Z,33.38
2022-08-08T15:14:44.614Z,33.46
2022-08-08T15:16:02.854Z,33.37
2022-08-08T15:17:08.378Z,33.11
2022-08-08T15:18:14.336Z,32.82
2022-08-08T15:19:23.733Z,32.50
2022-08-08T15:20:31.997Z,32.14
2022-08-08T15:21:42.438Z,31.68
2022-08-08T15:22:47.035Z,31.22
2022-08-08T15:23:51.099Z,30.90
2022-08-08T15:24:56.054Z,30.61
2022-08-08T15:26:00.698Z,30.32
2022-08-08T15:27:20.171Z,30.18
2022-08-08T15:28:34.348Z,30.06
2022-08-08T15:29:38.158Z,29.92
2022-08-08T15:30:42.525Z,29.79
2022-08-08T15:32:02.759Z,29.56
2022-08-08T15:33:10.198Z,29.17
2022-08-08T15:34:31.365Z,28.84
2022-08-08T15:35:39.221Z,28.57
2022-08-08T15:36:42.859Z,28.30
2022-08-08T15:37:47.632Z,28.09
2022-08-08T15:38:53.105Z,27.94
2022-08-08T15:39:57.487Z,27.82
2022-08-08T15:41:03.266Z,27.71
2022-08-08T15:42:13.066Z,27.61
2022-08-08T15:43:36.445Z,27.44
2022-08-08T15:44:42.252Z,27.33
2022-08-08T15:45:48.846Z,27.24
2022-08-08T15:46:51.994Z,27.16
2022-08-08T15:47:57.514Z,27.07
2022-08-08T15:49:21.215Z,26.95
2022-08-08T15:50:49.027Z,26.89
2022-08-08T15:51:54.993Z,26.80
2022-08-08T15:52:59.630Z,26.76
2022-08-08T15:54:04.426Z,26.72
2022-08-08T15:55:19.467Z,26.72
2022-08-08T15:56:23.767Z,26.68
2022-08-08T15:57:27.925Z,26.65
2022-08-08T15:58:39.298Z,26.58
2022-08-08T16:00:25.611Z,26.56
2022-08-08T16:01:18.362Z,26.55
2022-08-08T16:02:30.411Z,26.52
2022-08-08T16:03:36.527Z,26.49
2022-08-08T16:04:40.617Z,26.45
2022-08-08T16:06:00.972Z,26.36
2022-08-08T16:07:06.825Z,26.23
2022-08-08T16:08:12.772Z,26.20
2022-08-08T16:13:10.007Z,26.43
2022-08-08T16:13:14.105Z,26.32
2022-08-08T16:13:28.723Z,26.22
2022-08-08T16:13:46.168Z,26.59
2022-08-08T16:14:53.649Z,26.73
2022-08-08T16:16:16.582Z,26.80
2022-08-08T16:17:38.860Z,26.75
2022-08-08T16:18:56.432Z,26.71
2022-08-08T16:20:02.472Z,26.63
2022-08-08T16:21:25.895Z,26.59
2022-08-08T16:22:31.171Z,26.56
2022-08-08T16:23:34.357Z,26.54
2022-08-08T16:24:38.866Z,26.52
2022-08-08T16:26:13.163Z,26.46
2022-08-08T16:27:24.105Z,26.36
2022-08-08T16:28:35.511Z,26.32
2022-08-08T16:30:12.883Z,26.34
2022-08-08T16:31:08.170Z,26.32
2022-08-08T16:32:21.896Z,26.26
2022-08-08T16:33:37.998Z,26.15
2022-08-08T16:34:43.228Z,26.08
2022-08-08T16:35:47.020Z,26.03
2022-08-08T16:36:56.145Z,25.96
2022-08-08T16:37:59.782Z,25.94
2022-08-08T16:39:16.897Z,25.90
2022-08-08T16:40:30.194Z,25.86
2022-08-08T16:41:34.856Z,25.84
2022-08-08T16:42:38.822Z,25.83
2022-08-08T16:43:50.665Z,25.80
2022-08-08T16:44:59.642Z,25.75
2022-08-08T16:46:38.900Z,25.67
2022-08-08T16:47:40.367Z,25.54
2022-08-08T16:48:47.005Z,25.42
2022-08-08T16:49:50.614Z,25.35
2022-08-08T16:50:56.715Z,25.31
2022-08-08T16:55:00.275Z,25.14
2022-08-08T16:55:04.275Z,25.16